createdAt,value
2022-08-14T00:00:11.518Z,22.45
2022-08-14T00:02:41.591Z,22.42
2022-08-14T00:05:17.052Z,22.40
2022-08-14T00:07:46.474Z,22.37
2022-08-14T00:10:50.356Z,22.32
2022-08-14T00:13:14.187Z,22.31
2022-08-14T00:15:48.159Z,22.29
2022-08-14T00:18:30.939Z,22.28
2022-08-14T00:21:11.215Z,22.23
2022-08-14T00:23:41.006Z,22.17
2022-08-14T00:26:23.037Z,22.11
2022-08-14T00:28:54.653Z,22.03
2022-08-14T00:31:44.172Z,21.95
2022-08-14T00:34:37.952Z,21.86
2022-08-14T00:37:01.896Z,21.77
2022-08-14T00:39:31.057Z,21.68
2022-08-14T00:41:59.909Z,21.59
2022-08-14T00:44:33.462Z,21.51
2022-08-14T00:47:03.638Z,21.37
2022-08-14T00:49:38.086Z,21.27
2022-08-14T00:52:14.123Z,21.14
2022-08-14T00:54:53.003Z,21.04
2022-08-14T00:57:30.070Z,20.93
2022-08-14T01:00:01.773Z,20.81
2022-08-14T01:02:31.737Z,20.72
2022-08-14T01:05:02.862Z,20.63
2022-08-14T01:07:38.943Z,20.53
2022-08-14T01:10:19.489Z,20.43
2022-08-14T01:12:49.245Z,20.37
2022-08-14T01:15:31.789Z,20.29
2022-08-14T01:18:27.689Z,20.21
2022-08-14T01:21:09.079Z,20.16
2022-08-14T01:23:47.007Z,20.11
2022-08-14T01:26:34.637Z,20.06
2022-08-14T01:29:10.962Z,20.01
2022-08-14T01:31:54.619Z,19.96
2022-08-14T01:35:19.618Z,19.94
2022-08-14T01:37:16.425Z,19.90
2022-08-14T01:39:46.659Z,19.88
2022-08-14T01:42:31.892Z,19.89
2022-08-14T01:45:12.716Z,19.86
2022-08-14T01:47:46.575Z,19.87
2022-08-14T01:50:18.478Z,19.89
2022-08-14T01:52:59.208Z,19.89
2022-08-14T01:55:32.472Z,19.89
2022-08-14T01:58:20.418Z,19.88
2022-08-14T02:00:55.146Z,19.87
2022-08-14T02:03:29.951Z,19.87
2022-08-14T02:06:04.040Z,19.84
2022-08-14T02:08:54.764Z,19.80
2022-08-14T02:11:26.845Z,19.77
2022-08-14T02:14:07.187Z,19.74
2022-08-14T02:16:40.491Z,19.70
2022-08-14T02:19:15.273Z,19.68
2022-08-14T02:21:49.046Z,19.67
2022-08-14T02:24:38.703Z,19.65
2022-08-14T02:28:24.095Z,19.64
2022-08-14T02:30:02.473Z,19.62
2022-08-14T02:32:37.327Z,19.63
2022-08-14T02:35:19.163Z,19.63
2022-08-14T02:37:51.068Z,19.65
2022-08-14T02:40:32.305Z,19.67
2022-08-14T02:43:05.192Z,19.63
2022-08-14T02:45:42.284Z,19.69
2022-08-14T02:49:03.390Z,19.72
2022-08-14T02:51:09.003Z,19.75
2022-08-14T02:53:42.294Z,19.79
2022-08-14T02:56:30.496Z,19.81
2022-08-14T02:59:08.367Z,19.83
2022-08-14T03:01:43.761Z,19.85
2022-08-14T03:04:20.249Z,19.85
2022-08-14T03:06:57.888Z,19.84
2022-08-14T03:10:24.649Z,19.80
2022-08-14T03:12:31.802Z,19.75
2022-08-14T03:15:14.419Z,19.71
2022-08-14T03:17:57.753Z,19.68
2022-08-14T03:20:29.118Z,19.64
2022-08-14T03:23:00.092Z,19.62
2022-08-14T03:25:33.534Z,19.58
2022-08-14T03:28:05.423Z,19.54
2022-08-14T03:30:40.812Z,19.51
2022-08-14T03:33:12.283Z,19.47
2022-08-14T03:36:00.102Z,19.45
2022-08-14T03:39:16.051Z,19.42
2022-08-14T03:41:23.266Z,19.39
2022-08-14T03:43:57.901Z,19.38
2022-08-14T03:46:52.762Z,19.35
2022-08-14T03:49:29.657Z,19.31
2022-08-14T03:52:00.561Z,19.28
2022-08-14T03:54:32.593Z,19.24
2022-08-14T03:57:02.728Z,19.20
2022-08-14T03:59:32.364Z,19.16
2022-08-14T04:02:04.802Z,19.12
2022-08-14T04:04:53.570Z,19.06
2022-08-14T04:07:23.138Z,19.03
2022-08-14T04:09:52.758Z,19.01
2022-08-14T04:12:26.505Z,18.99
2022-08-14T04:14:55.778Z,19.00
2022-08-14T04:17:26.404Z,19.00
2022-08-14T04:19:55.671Z,19.02
2022-08-14T04:22:25.529Z,19.04
2022-08-14T04:24:54.447Z,19.07
2022-08-14T04:27:23.390Z,19.12
2022-08-14T04:29:51.985Z,19.13
2022-08-14T04:33:00.016Z,19.16
2022-08-14T04:35:13.718Z,19.21
2022-08-14T04:38:36.695Z,19.24
2022-08-14T04:41:17.354Z,19.30
2022-08-14T04:43:45.965Z,19.36
2022-08-14T04:46:55.392Z,19.41
2022-08-14T04:49:07.883Z,19.48
2022-08-14T04:51:46.664Z,19.53
2022-08-14T04:54:17.411Z,19.58
2022-08-14T04:56:46.024Z,19.66
2022-08-14T04:59:14.603Z,19.73
2022-08-14T05:01:48.922Z,19.81
2022-08-14T05:04:21.357Z,19.89
2022-08-14T05:06:53.757Z,19.97
2022-08-14T05:09:24.312Z,20.07
2022-08-14T05:11:53.141Z,20.17
2022-08-14T05:14:43.244Z,20.26
2022-08-14T05:17:12.468Z,20.38
2022-08-14T05:19:44.882Z,20.45
2022-08-14T05:22:31.580Z,20.53
2022-08-14T05:25:01.294Z,20.62
2022-08-14T05:27:31.287Z,20.72
2022-08-14T05:30:01.318Z,20.80
2022-08-14T05:32:30.608Z,20.88
2022-08-14T05:35:00.669Z,20.98
2022-08-14T05:37:31.550Z,21.04
2022-08-14T05:40:02.562Z,21.13
2022-08-14T05:42:34.277Z,21.23
2022-08-14T05:45:11.345Z,21.36
2022-08-14T05:47:43.155Z,21.51
2022-08-14T05:50:18.469Z,21.66
2022-08-14T05:52:51.011Z,21.84
2022-08-14T05:55:22.142Z,22.01
2022-08-14T05:57:54.414Z,22.17
2022-08-14T06:00:29.891Z,22.32
2022-08-14T06:03:00.501Z,22.47
2022-08-14T06:05:31.099Z,22.61
2022-08-14T06:08:02.858Z,22.78
2022-08-14T06:10:37.558Z,22.95
2022-08-14T06:13:06.618Z,23.06
2022-08-14T06:15:37.579Z,23.17
2022-08-14T06:18:08.977Z,23.31
2022-08-14T06:20:37.971Z,23.43
2022-08-14T06:23:10.155Z,23.57
2022-08-14T06:25:38.874Z,23.71
2022-08-14T06:28:26.973Z,23.85
2022-08-14T06:30:56.847Z,23.99
2022-08-14T06:35:04.722Z,24.11
2022-08-14T06:36:18.352Z,24.27
2022-08-14T06:38:50.260Z,24.35
2022-08-14T06:41:20.891Z,24.44
2022-08-14T06:44:09.579Z,24.53
2022-08-14T06:46:38.482Z,24.61
2022-08-14T06:49:07.389Z,24.75
2022-08-14T06:51:38.882Z,24.88
2022-08-14T06:54:15.277Z,25.04
2022-08-14T06:56:54.458Z,25.11
2022-08-14T06:59:25.913Z,25.15
2022-08-14T07:02:19.120Z,25.21
2022-08-14T07:05:06.196Z,25.33
2022-08-14T07:07:39.484Z,25.52
2022-08-14T07:10:16.838Z,25.71
2022-08-14T07:13:00.737Z,25.90
2022-08-14T07:15:33.661Z,26.08
2022-08-14T07:18:03.713Z,26.18
2022-08-14T07:20:37.569Z,26.21
2022-08-14T07:23:10.863Z,26.17
2022-08-14T07:25:48.511Z,26.08
2022-08-14T07:28:24.540Z,26.08
2022-08-14T07:30:56.387Z,26.07
2022-08-14T07:33:29.084Z,26.07
2022-08-14T07:36:00.724Z,26.17
2022-08-14T07:38:33.979Z,26.30
2022-08-14T07:41:14.812Z,26.49
2022-08-14T07:43:52.891Z,26.48
2022-08-14T07:46:29.393Z,26.36
2022-08-14T07:48:59.858Z,26.25
2022-08-14T07:51:36.568Z,26.18
2022-08-14T07:54:10.911Z,26.12
2022-08-14T07:56:46.921Z,26.15
2022-08-14T07:59:18.479Z,26.19
2022-08-14T08:01:51.653Z,26.22
2022-08-14T08:04:27.658Z,26.39
2022-08-14T08:06:56.802Z,26.65
2022-08-14T08:09:31.988Z,26.89
2022-08-14T08:12:09.287Z,27.15
2022-08-14T08:14:56.902Z,27.33
2022-08-14T08:17:34.982Z,27.51
2022-08-14T08:20:20.001Z,27.72
2022-08-14T08:22:49.981Z,27.81
2022-08-14T08:25:25.021Z,27.72
2022-08-14T08:28:08.269Z,27.52
2022-08-14T08:30:49.340Z,27.38
2022-08-14T08:33:19.818Z,27.30
2022-08-14T08:35:50.434Z,27.23
2022-08-14T08:39:17.001Z,27.18
2022-08-14T08:41:12.833Z,27.12
2022-08-14T08:43:45.787Z,27.07
2022-08-14T08:46:23.438Z,27.04
2022-08-14T08:51:31.231Z,26.95
2022-08-14T08:54:06.305Z,26.92
2022-08-14T08:56:39.901Z,26.93
2022-08-14T08:59:30.809Z,26.96
2022-08-14T09:02:04.950Z,26.98
2022-08-14T09:04:45.500Z,26.98
2022-08-14T09:07:27.362Z,26.96
2022-08-14T09:10:00.171Z,26.95
2022-08-14T09:12:34.194Z,26.93
2022-08-14T09:15:11.869Z,26.89
2022-08-14T09:17:42.642Z,26.85
2022-08-14T09:20:25.952Z,26.81
2022-08-14T09:22:59.845Z,26.81
2022-08-14T09:25:59.711Z,26.83
2022-08-14T09:28:19.130Z,26.88
2022-08-14T09:30:54.759Z,26.94
2022-08-14T09:33:57.420Z,27.07
2022-08-14T09:37:03.792Z,27.14
2022-08-14T09:39:47.808Z,27.19
2022-08-14T09:42:49.739Z,27.21
2022-08-14T09:45:23.919Z,27.28
2022-08-14T09:47:56.904Z,27.37
2022-08-14T09:50:30.006Z,27.44
2022-08-14T09:53:02.853Z,27.50
2022-08-14T09:55:41.869Z,27.49
2022-08-14T09:58:19.807Z,27.48
2022-08-14T10:00:54.056Z,27.53
2022-08-14T10:03:34.735Z,27.61
2022-08-14T10:06:12.593Z,27.79
2022-08-14T10:08:51.077Z,28.02
2022-08-14T10:11:24.057Z,28.25
2022-08-14T10:13:55.795Z,28.48
2022-08-14T10:16:27.583Z,28.70
2022-08-14T10:19:10.539Z,28.89
2022-08-14T10:21:58.639Z,29.02
2022-08-14T10:24:36.705Z,29.26
2022-08-14T10:27:17.126Z,29.51
2022-08-14T10:29:51.091Z,29.67
2022-08-14T10:32:28.390Z,29.75
2022-08-14T10:35:14.727Z,29.81
2022-08-14T10:37:49.865Z,29.90
2022-08-14T10:40:38.035Z,29.96
2022-08-14T10:43:22.961Z,30.07
2022-08-14T10:46:04.055Z,30.20
2022-08-14T10:49:00.903Z,30.38
2022-08-14T10:51:36.060Z,30.53
2022-08-14T10:54:35.277Z,30.44
2022-08-14T10:56:59.349Z,30.27
2022-08-14T10:59:30.960Z,30.13
2022-08-14T11:02:04.215Z,29.97
2022-08-14T11:04:33.334Z,29.78
2022-08-14T11:07:05.757Z,29.68
2022-08-14T11:09:34.531Z,29.65
2022-08-14T11:12:35.131Z,29.66
2022-08-14T11:15:02.079Z,29.57
2022-08-14T11:17:32.882Z,29.46
2022-08-14T11:20:13.864Z,29.35
2022-08-14T11:23:03.309Z,29.23
2022-08-14T11:25:36.865Z,29.12
2022-08-14T11:28:19.381Z,29.05
2022-08-14T11:30:53.421Z,29.02
2022-08-14T11:33:25.565Z,29.00
2022-08-14T11:35:59.658Z,28.96
2022-08-14T11:38:37.726Z,28.94
2022-08-14T11:41:07.578Z,28.89
2022-08-14T11:43:41.906Z,28.84
2022-08-14T11:46:17.813Z,28.83
2022-08-14T11:49:03.609Z,28.79
2022-08-14T11:51:36.175Z,28.76
2022-08-14T11:54:34.018Z,28.75
2022-08-14T11:57:04.488Z,28.75
2022-08-14T11:59:34.250Z,28.75
2022-08-14T12:03:01.162Z,28.76
2022-08-14T12:05:03.979Z,28.82
2022-08-14T12:07:33.486Z,28.82
2022-08-14T12:10:26.528Z,28.84
2022-08-14T12:12:56.525Z,28.87
2022-08-14T12:15:34.104Z,28.89
2022-08-14T12:18:04.812Z,28.92
2022-08-14T12:20:36.954Z,28.95
2022-08-14T12:23:07.439Z,29.00
2022-08-14T12:25:39.167Z,29.01
2022-08-14T12:28:27.236Z,29.01
2022-08-14T12:31:13.238Z,28.99
2022-08-14T12:33:47.199Z,29.00
2022-08-14T12:36:23.033Z,29.00
2022-08-14T12:38:55.489Z,28.98
2022-08-14T12:41:34.290Z,28.98
2022-08-14T12:44:08.408Z,28.97
2022-08-14T12:46:41.122Z,28.96
2022-08-14T12:49:16.036Z,28.95
2022-08-14T12:51:57.022Z,28.95
2022-08-14T12:54:28.548Z,28.94
2022-08-14T12:57:10.328Z,28.90
2022-08-14T12:59:43.355Z,28.93
2022-08-14T13:02:26.387Z,28.95
2022-08-14T13:04:57.999Z,29.02
2022-08-14T13:07:32.721Z,29.09
2022-08-14T13:10:45.684Z,29.14
2022-08-14T13:13:13.084Z,29.15
2022-08-14T13:15:46.514Z,29.19
2022-08-14T13:18:18.027Z,29.22
2022-08-14T13:20:51.415Z,29.24
2022-08-14T13:23:31.814Z,29.26
2022-08-14T13:26:02.720Z,29.28
2022-08-14T13:28:39.749Z,29.29
2022-08-14T13:31:14.369Z,29.30
2022-08-14T13:33:42.936Z,29.30
2022-08-14T13:36:23.665Z,29.28
2022-08-14T13:38:54.156Z,29.23
2022-08-14T13:41:31.806Z,29.20
2022-08-14T13:44:07.966Z,29.14
2022-08-14T13:46:44.474Z,29.09
2022-08-14T13:49:14.928Z,28.98
2022-08-14T13:51:50.502Z,28.96
2022-08-14T13:54:22.762Z,28.95
2022-08-14T13:56:52.397Z,29.01
2022-08-14T13:59:38.108Z,29.08
2022-08-14T14:02:09.585Z,29.07
2022-08-14T14:04:42.522Z,29.02
2022-08-14T14:07:17.681Z,28.98
2022-08-14T14:09:52.574Z,28.94
2022-08-14T14:12:38.010Z,28.94
2022-08-14T14:15:15.014Z,28.93
2022-08-14T14:17:48.627Z,29.00
2022-08-14T14:20:34.690Z,29.05
2022-08-14T14:23:12.117Z,29.02
2022-08-14T14:25:51.007Z,28.98
2022-08-14T14:28:31.981Z,28.94
2022-08-14T14:31:06.941Z,28.89
2022-08-14T14:33:47.126Z,28.86
2022-08-14T14:36:21.966Z,28.82
2022-08-14T14:38:56.225Z,28.80
2022-08-14T14:41:37.840Z,28.77
2022-08-14T14:44:11.276Z,28.76
2022-08-14T14:46:50.196Z,28.75
2022-08-14T14:49:21.777Z,28.73
2022-08-14T14:51:52.464Z,28.71
2022-08-14T14:54:31.459Z,28.71
2022-08-14T14:57:02.235Z,28.67
2022-08-14T14:59:33.374Z,28.62
2022-08-14T15:02:07.970Z,28.60
2022-08-14T15:04:43.693Z,28.56
2022-08-14T15:07:13.147Z,28.54
2022-08-14T15:09:45.204Z,28.52
2022-08-14T15:12:54.926Z,28.50
2022-08-14T15:15:08.877Z,28.46
2022-08-14T15:17:41.647Z,28.42
2022-08-14T15:20:17.277Z,28.35
2022-08-14T15:22:59.617Z,28.27
2022-08-14T15:25:31.772Z,28.21
2022-08-14T15:28:00.954Z,28.15
2022-08-14T15:30:32.316Z,28.09
2022-08-14T15:33:02.634Z,28.05
2022-08-14T15:35:34.018Z,27.99
2022-08-14T15:38:08.781Z,27.92
2022-08-14T15:40:41.248Z,27.87
2022-08-14T15:43:13.023Z,27.83
2022-08-14T15:45:42.896Z,27.80
2022-08-14T15:48:21.974Z,27.77
2022-08-14T15:50:51.689Z,27.76
2022-08-14T15:53:22.504Z,27.75
2022-08-14T15:55:52.988Z,27.71
2022-08-14T15:58:21.816Z,27.67
2022-08-14T16:01:07.629Z,27.64
2022-08-14T16:03:40.877Z,27.57
2022-08-14T16:06:17.961Z,27.54
2022-08-14T16:08:50.405Z,27.52
2022-08-14T16:11:28.809Z,27.50
2022-08-14T16:14:01.969Z,27.48
2022-08-14T16:16:50.102Z,27.43
2022-08-14T16:19:23.510Z,27.38
2022-08-14T16:22:02.079Z,27.34
2022-08-14T16:24:59.842Z,27.29
2022-08-14T16:27:37.891Z,27.25
2022-08-14T16:30:24.406Z,27.23
2022-08-14T16:32:55.391Z,27.20
2022-08-14T16:35:43.361Z,27.16
2022-08-14T16:38:29.386Z,27.11
2022-08-14T16:41:26.507Z,27.03
2022-08-14T16:43:59.666Z,26.95
2022-08-14T16:46:34.821Z,26.89
2022-08-14T16:49:05.355Z,26.84
2022-08-14T16:51:39.590Z,26.77
2022-08-14T16:54:33.701Z,26.70
2022-08-14T16:57:18.410Z,26.60
2022-08-14T16:59:52.638Z,26.57
2022-08-14T17:02:36.779Z,26.51
2022-08-14T17:05:20.720Z,26.45
2022-08-14T17:08:32.053Z,26.35
2022-08-14T17:11:11.177Z,26.30
2022-08-14T17:13:58.518Z,26.25
2022-08-14T17:16:35.799Z,26.20
2022-08-14T17:19:09.716Z,26.15
2022-08-14T17:21:47.371Z,26.11
2022-08-14T17:24:57.482Z,26.09
2022-08-14T17:27:08.520Z,26.07
2022-08-14T17:29:54.571Z,26.04
2022-08-14T17:32:30.067Z,26.05
2022-08-14T17:35:18.049Z,26.02
2022-08-14T17:37:56.027Z,25.99
2022-08-14T17:40:31.659Z,25.98
2022-08-14T17:43:02.432Z,25.98
2022-08-14T17:45:46.940Z,25.96
2022-08-14T17:49:15.957Z,25.96
2022-08-14T17:51:24.045Z,25.94
2022-08-14T17:54:02.573Z,25.93
2022-08-14T17:56:34.204Z,25.91
2022-08-14T17:59:07.533Z,25.87
2022-08-14T18:01:45.764Z,25.87
2022-08-14T18:04:27.609Z,25.85
2022-08-14T18:07:16.774Z,25.83
2022-08-14T18:09:56.741Z,25.79
2022-08-14T18:12:36.342Z,25.74
2022-08-14T18:15:16.043Z,25.68
2022-08-14T18:17:53.291Z,25.63
2022-08-14T18:21:25.634Z,25.59
2022-08-14T18:23:14.574Z,25.50
2022-08-14T18:25:52.750Z,25.44
2022-08-14T18:28:48.036Z,25.38
2022-08-14T18:31:43.445Z,25.28
2022-08-14T18:34:30.832Z,25.21
2022-08-14T18:37:16.747Z,25.14
2022-08-14T18:40:02.936Z,25.07
2022-08-14T18:42:46.046Z,24.99
2022-08-14T18:45:18.742Z,24.92
2022-08-14T18:48:33.409Z,24.82
2022-08-14T18:51:45.551Z,24.74
2022-08-14T18:54:33.294Z,24.64
2022-08-14T18:57:05.632Z,24.59
2022-08-14T18:59:40.442Z,24.53
2022-08-14T19:02:46.235Z,24.43
2022-08-14T19:05:58.628Z,24.36
2022-08-14T19:08:27.772Z,24.31
2022-08-14T19:10:59.604Z,24.24
2022-08-14T19:13:44.587Z,24.15
2022-08-14T19:16:23.028Z,24.11
2022-08-14T19:19:00.150Z,24.06
2022-08-14T19:21:31.684Z,24.03
2022-08-14T19:24:27.797Z,23.99
2022-08-14T19:27:19.170Z,23.94
2022-08-14T19:29:51.316Z,23.92
2022-08-14T19:32:40.867Z,23.86
2022-08-14T19:35:49.688Z,23.80
2022-08-14T19:38:48.325Z,23.75
2022-08-14T19:41:34.118Z,23.72
2022-08-14T19:44:12.371Z,23.66
2022-08-14T19:47:02.682Z,23.64
2022-08-14T19:50:24.781Z,23.59
2022-08-14T19:52:38.796Z,23.54
2022-08-14T19:55:17.359Z,23.48
2022-08-14T19:57:52.406Z,23.44
2022-08-14T20:00:30.292Z,23.39
2022-08-14T20:03:10.726Z,23.33
2022-08-14T20:05:42.917Z,23.29
2022-08-14T20:09:05.739Z,23.25
2022-08-14T20:11:20.883Z,23.22
2022-08-14T20:14:10.345Z,23.17
2022-08-14T20:16:41.894Z,23.13
2022-08-14T20:19:23.162Z,23.10
2022-08-14T20:21:58.163Z,23.09
2022-08-14T20:24:41.294Z,23.04
2022-08-14T20:27:24.908Z,23.00
2022-08-14T20:30:33.415Z,22.93
2022-08-14T20:33:11.133Z,22.90
2022-08-14T20:35:46.931Z,22.88
2022-08-14T20:38:31.929Z,22.85
2022-08-14T20:41:09.461Z,22.81
2022-08-14T20:43:59.635Z,22.77
2022-08-14T20:46:33.691Z,22.73
2022-08-14T20:49:12.044Z,22.69
2022-08-14T20:51:54.949Z,22.67
2022-08-14T20:54:34.250Z,22.64
2022-08-14T20:57:12.044Z,22.59
2022-08-14T20:59:44.851Z,22.55
2022-08-14T21:02:38.686Z,22.47
2022-08-14T21:05:22.050Z,22.45
2022-08-14T21:08:09.727Z,22.41
2022-08-14T21:10:54.871Z,22.36
2022-08-14T21:13:27.479Z,22.31
2022-08-14T21:16:34.577Z,22.23
2022-08-14T21:19:09.264Z,22.14
2022-08-14T21:21:54.602Z,22.08
2022-08-14T21:24:39.938Z,22.01
2022-08-14T21:27:20.288Z,21.94
2022-08-14T21:29:55.356Z,21.84
2022-08-14T21:32:50.438Z,21.77
2022-08-14T21:35:28.725Z,21.69
2022-08-14T21:37:58.579Z,21.62
2022-08-14T21:40:42.445Z,21.56
2022-08-14T21:43:17.425Z,21.50
2022-08-14T21:45:53.234Z,21.43
2022-08-14T21:48:25.355Z,21.38
2022-08-14T21:51:01.734Z,21.34
2022-08-14T21:53:58.906Z,21.28
2022-08-14T21:56:38.226Z,21.24
2022-08-14T21:59:18.000Z,21.19
2022-08-14T22:02:00.651Z,21.14
2022-08-14T22:04:40.804Z,21.07
2022-08-14T22:07:17.426Z,21.01
2022-08-14T22:09:54.648Z,20.94
2022-08-14T22:12:45.544Z,20.87
2022-08-14T22:15:17.066Z,20.81
2022-08-14T22:17:54.193Z,20.76
2022-08-14T22:20:28.075Z,20.72
2022-08-14T22:23:02.961Z,20.66
2022-08-14T22:25:34.114Z,20.62
2022-08-14T22:28:13.056Z,20.56
2022-08-14T22:30:43.302Z,20.51
2022-08-14T22:33:13.382Z,20.45
2022-08-14T22:35:43.012Z,20.38
2022-08-14T22:38:35.707Z,20.30
2022-08-14T22:41:25.532Z,20.23
2022-08-14T22:43:53.282Z,20.12
2022-08-14T22:46:23.710Z,20.04
2022-08-14T22:48:53.052Z,19.94
2022-08-14T22:51:27.466Z,19.85
2022-08-14T22:53:59.160Z,19.74
2022-08-14T22:56:30.387Z,19.66
2022-08-14T22:59:01.218Z,19.58
2022-08-14T23:01:56.898Z,19.49
2022-08-14T23:04:35.192Z,19.42
2022-08-14T23:07:22.967Z,19.38
2022-08-14T23:09:56.498Z,19.33
2022-08-14T23:12:31.815Z,19.30
2022-08-14T23:15:03.844Z,19.26
2022-08-14T23:17:40.500Z,19.24
2022-08-14T23:20:19.223Z,19.17
2022-08-14T23:22:51.521Z,19.11
2022-08-14T23:25:57.178Z,19.06
2022-08-14T23:28:34.705Z,19.02
2022-08-14T23:31:09.895Z,18.96
2022-08-14T23:33:45.650Z,18.93
2022-08-14T23:36:32.246Z,18.89
2022-08-14T23:39:10.255Z,18.88
2022-08-14T23:41:47.045Z,18.86
2022-08-14T23:44:24.162Z,18.84
2022-08-14T23:46:57.112Z,18.80
2022-08-14T23:49:56.609Z,18.78
2022-08-14T23:53:06.086Z,18.74
2022-08-14T23:55:11.179Z,18.72
2022-08-14T23:57:44.257Z,18.68
